createdAt,value
2018-09-29T00:01:35.791Z,11.97
2018-09-29T00:04:05.585Z,9.87
2018-09-29T00:06:34.893Z,10.07
2018-09-29T00:09:05.899Z,12.83
2018-09-29T00:11:35.205Z,12.63
2018-09-29T00:14:04.553Z,11.63
2018-09-29T00:16:33.945Z,9.73
2018-09-29T00:19:03.143Z,9.30
2018-09-29T00:21:32.374Z,7.60
2018-09-29T00:24:01.639Z,8.33
2018-09-29T00:26:30.856Z,7.50
2018-09-29T00:29:00.081Z,8.33
2018-09-29T00:31:29.348Z,13.53
2018-09-29T00:33:58.561Z,12.00
2018-09-29T00:36:27.814Z,11.53
2018-09-29T00:38:57.615Z,6.43
2018-09-29T00:41:26.947Z,7.97
2018-09-29T00:43:56.223Z,11.60
2018-09-29T00:46:25.504Z,9.60
2018-09-29T00:48:54.727Z,9.70
2018-09-29T00:51:24.056Z,10.57
2018-09-29T00:53:53.285Z,9.70
2018-09-29T00:56:22.515Z,8.93
2018-09-29T00:58:51.732Z,12.20
2018-09-29T01:01:21.018Z,7.37
2018-09-29T01:03:50.252Z,8.47
2018-09-29T01:06:19.493Z,8.37
2018-09-29T01:08:48.711Z,8.27
2018-09-29T01:11:17.952Z,10.90
2018-09-29T01:13:47.207Z,11.37
2018-09-29T01:16:16.508Z,7.73
2018-09-29T01:18:45.807Z,6.90
2018-09-29T01:21:15.056Z,10.47
2018-09-29T01:23:44.311Z,9.10
2018-09-29T01:26:13.895Z,10.67
2018-09-29T01:28:43.141Z,8.00
2018-09-29T01:31:12.451Z,11.83
2018-09-29T01:33:41.788Z,9.27
2018-09-29T01:36:11.008Z,9.47
2018-09-29T01:38:40.239Z,10.60
2018-09-29T01:41:09.444Z,8.87
2018-09-29T01:43:38.680Z,12.13
2018-09-29T01:46:07.911Z,8.87
2018-09-29T01:48:37.177Z,10.53
2018-09-29T01:51:06.487Z,6.77
2018-09-29T01:53:35.772Z,7.33
2018-09-29T01:56:05.042Z,9.27
2018-09-29T01:58:34.369Z,8.43
2018-09-29T02:01:03.703Z,8.70
2018-09-29T02:03:33.036Z,9.97
2018-09-29T02:06:02.262Z,7.87
2018-09-29T02:08:31.492Z,9.67
2018-09-29T02:11:00.775Z,10.83
2018-09-29T02:13:29.964Z,7.67
2018-09-29T02:15:59.221Z,8.53
2018-09-29T02:18:28.464Z,9.67
2018-09-29T02:20:57.684Z,8.47
2018-09-29T02:23:27.031Z,13.27
2018-09-29T02:25:56.288Z,12.13
2018-09-29T02:28:26.104Z,9.63
2018-09-29T02:30:55.364Z,8.03
2018-09-29T02:33:24.732Z,9.10
2018-09-29T02:35:54.026Z,9.67
2018-09-29T02:38:23.244Z,8.00
2018-09-29T02:40:52.543Z,11.00
2018-09-29T02:43:22.460Z,6.80
2018-09-29T02:45:52.088Z,11.00
2018-09-29T02:48:21.272Z,7.07
2018-09-29T02:50:50.539Z,9.47
2018-09-29T02:53:19.819Z,9.73
2018-09-29T02:55:49.068Z,8.23
2018-09-29T02:58:18.308Z,9.43
2018-09-29T03:00:47.509Z,12.53
2018-09-29T03:03:16.727Z,12.23
2018-09-29T03:05:45.953Z,9.33
2018-09-29T03:08:15.185Z,10.23
2018-09-29T03:10:44.451Z,11.57
2018-09-29T03:13:13.667Z,11.83
2018-09-29T03:15:42.880Z,13.23
2018-09-29T03:18:12.112Z,8.93
2018-09-29T03:20:41.448Z,9.63
2018-09-29T03:23:10.734Z,9.00
2018-09-29T03:25:39.875Z,11.13
2018-09-29T03:28:09.116Z,8.53
2018-09-29T03:30:38.421Z,11.27
2018-09-29T03:33:07.712Z,8.10
2018-09-29T03:35:36.976Z,8.03
2018-09-29T03:38:06.564Z,10.17
2018-09-29T03:40:35.952Z,9.60
2018-09-29T03:43:05.167Z,11.20
2018-09-29T03:45:34.388Z,10.60
2018-09-29T03:48:03.681Z,7.47
2018-09-29T03:50:32.900Z,7.73
2018-09-29T03:53:02.238Z,10.47
2018-09-29T03:55:31.485Z,8.40
2018-09-29T03:58:01.343Z,11.10
2018-09-29T04:00:30.623Z,5.80
2018-09-29T04:02:59.950Z,12.67
2018-09-29T04:05:29.173Z,11.73
2018-09-29T04:07:58.582Z,12.47
2018-09-29T04:10:27.799Z,10.93
2018-09-29T04:12:57.800Z,10.33
2018-09-29T04:15:27.020Z,9.03
2018-09-29T04:17:56.269Z,13.33
2018-09-29T04:20:25.505Z,9.73
2018-09-29T04:22:54.729Z,4.80
2018-09-29T04:25:24.024Z,11.27
2018-09-29T04:27:53.237Z,8.00
2018-09-29T04:30:22.448Z,6.63
2018-09-29T04:32:51.753Z,8.17
2018-09-29T04:35:21.016Z,6.63
2018-09-29T04:37:50.283Z,12.40
2018-09-29T04:40:19.472Z,8.17
2018-09-29T04:42:48.712Z,8.60
2018-09-29T04:45:17.968Z,11.87
2018-09-29T04:47:47.228Z,7.17
2018-09-29T04:50:22.935Z,8.37
2018-09-29T04:52:52.183Z,9.07
2018-09-29T04:55:21.385Z,8.17
2018-09-29T04:57:50.661Z,8.80
2018-09-29T05:00:19.911Z,10.20
2018-09-29T05:02:49.124Z,12.57
2018-09-29T05:05:18.411Z,7.77
2018-09-29T05:07:47.643Z,8.07
2018-09-29T05:10:16.862Z,7.87
2018-09-29T05:12:46.068Z,8.00
2018-09-29T05:15:16.090Z,9.33
2018-09-29T05:17:45.356Z,10.80
2018-09-29T05:20:14.591Z,7.87
2018-09-29T05:22:43.854Z,7.90
2018-09-29T05:25:13.261Z,5.63
2018-09-29T05:27:42.544Z,11.60
2018-09-29T05:30:11.794Z,7.10
2018-09-29T05:32:41.033Z,8.67
2018-09-29T05:35:10.329Z,8.27
2018-09-29T05:37:39.556Z,9.03
2018-09-29T05:40:08.831Z,10.07
2018-09-29T05:42:38.152Z,9.40
2018-09-29T05:45:07.431Z,11.50
2018-09-29T05:47:36.668Z,10.47
2018-09-29T05:50:05.985Z,11.33
2018-09-29T05:52:35.182Z,10.43
2018-09-29T05:55:04.623Z,12.20
2018-09-29T05:57:33.973Z,8.10
2018-09-29T06:00:03.206Z,7.20
2018-09-29T06:02:32.519Z,9.27
2018-09-29T06:05:01.760Z,9.27
2018-09-29T06:07:31.098Z,8.63
2018-09-29T06:10:00.773Z,8.33
2018-09-29T06:12:29.988Z,8.63
2018-09-29T06:14:59.383Z,6.80
2018-09-29T06:17:28.636Z,8.00
2018-09-29T06:19:57.914Z,10.67
2018-09-29T06:22:27.194Z,9.50
2018-09-29T06:24:56.725Z,9.67
2018-09-29T06:27:25.959Z,7.57
2018-09-29T06:29:55.178Z,8.77
2018-09-29T06:32:24.403Z,10.40
2018-09-29T06:34:53.652Z,7.50
2018-09-29T06:37:22.915Z,10.67
2018-09-29T06:39:52.136Z,7.83
2018-09-29T06:42:21.440Z,9.00
2018-09-29T06:44:50.731Z,6.67
2018-09-29T06:47:19.997Z,9.70
2018-09-29T06:49:49.236Z,6.97
2018-09-29T06:52:18.577Z,8.90
2018-09-29T06:54:47.848Z,6.00
2018-09-29T06:57:17.111Z,10.30
2018-09-29T06:59:47.194Z,6.43
2018-09-29T07:02:16.400Z,8.70
2018-09-29T07:04:45.924Z,8.20
2018-09-29T07:07:15.156Z,10.60
2018-09-29T07:09:44.392Z,7.93
2018-09-29T07:12:13.611Z,5.50
2018-09-29T07:14:42.914Z,10.10
2018-09-29T07:17:12.065Z,7.93
2018-09-29T07:19:41.325Z,11.17
2018-09-29T07:22:10.570Z,6.90
2018-09-29T07:24:40.596Z,8.80
2018-09-29T07:27:09.808Z,10.67
2018-09-29T07:29:39.064Z,12.80
2018-09-29T07:32:08.292Z,7.07
2018-09-29T07:34:37.532Z,11.00
2018-09-29T07:37:06.754Z,8.90
2018-09-29T07:39:35.993Z,9.30
2018-09-29T07:42:05.188Z,7.10
2018-09-29T07:44:34.520Z,8.67
2018-09-29T07:47:04.564Z,8.10
2018-09-29T07:49:33.787Z,8.23
2018-09-29T07:52:03.077Z,5.97
2018-09-29T07:54:32.368Z,7.30
2018-09-29T07:57:02.385Z,8.47
2018-09-29T07:59:31.721Z,6.93
2018-09-29T08:02:01.017Z,5.40
2018-09-29T08:04:30.253Z,6.20
2018-09-29T08:06:59.529Z,7.20
2018-09-29T08:09:28.857Z,4.03
2018-09-29T08:11:58.081Z,6.13
2018-09-29T08:14:27.317Z,9.20
2018-09-29T08:16:56.619Z,6.87
2018-09-29T08:19:25.877Z,6.47
2018-09-29T08:21:55.153Z,6.83
2018-09-29T08:24:24.500Z,5.83
2018-09-29T08:26:53.827Z,6.90
2018-09-29T08:29:23.160Z,7.77
2018-09-29T08:31:52.491Z,6.57
2018-09-29T08:34:21.764Z,11.00
2018-09-29T08:36:51.006Z,6.17
2018-09-29T08:39:20.309Z,9.83
2018-09-29T08:41:49.547Z,8.07
2018-09-29T08:44:18.801Z,6.20
2018-09-29T08:46:48.215Z,5.73
2018-09-29T08:49:17.426Z,6.77
2018-09-29T08:51:46.688Z,6.23
2018-09-29T08:54:15.938Z,7.97
2018-09-29T08:56:45.679Z,4.43
2018-09-29T08:59:14.913Z,6.20
2018-09-29T09:01:44.204Z,9.20
2018-09-29T09:04:13.461Z,6.70
2018-09-29T09:06:42.720Z,6.30
2018-09-29T09:09:12.210Z,6.63
2018-09-29T09:11:41.440Z,5.30
2018-09-29T09:14:10.740Z,8.80
2018-09-29T09:16:40.289Z,3.00
2018-09-29T09:19:09.494Z,4.23
2018-09-29T09:21:38.804Z,7.23
2018-09-29T09:24:08.170Z,6.00
2018-09-29T09:26:37.444Z,5.80
2018-09-29T09:29:06.947Z,5.17
2018-09-29T09:31:36.289Z,5.47
2018-09-29T09:34:05.600Z,6.63
2018-09-29T09:36:34.823Z,5.67
2018-09-29T09:39:04.837Z,5.57
2018-09-29T09:41:34.069Z,6.93
2018-09-29T09:44:03.424Z,4.23
2018-09-29T09:46:32.648Z,5.43
2018-09-29T09:49:01.954Z,5.90
2018-09-29T09:51:31.188Z,6.30
2018-09-29T09:54:00.500Z,6.73
2018-09-29T09:56:29.745Z,5.13
2018-09-29T09:58:58.986Z,6.47
2018-09-29T10:01:35.426Z,6.23
2018-09-29T10:04:04.692Z,5.50
2018-09-29T10:06:34.853Z,4.20
2018-09-29T10:09:04.966Z,5.63
2018-09-29T10:11:34.208Z,6.97
2018-09-29T10:14:03.434Z,6.10
2018-09-29T10:16:32.950Z,5.90
2018-09-29T10:19:02.300Z,7.13
2018-09-29T10:21:31.567Z,5.60
2018-09-29T10:24:00.888Z,3.77
2018-09-29T10:26:30.171Z,5.07
2018-09-29T10:28:59.441Z,5.97
2018-09-29T10:31:28.801Z,3.93
2018-09-29T10:33:58.112Z,5.83
2018-09-29T10:36:27.391Z,4.73
2018-09-29T10:38:56.718Z,6.37
2018-09-29T10:41:26.681Z,6.37
2018-09-29T10:43:55.900Z,4.97
2018-09-29T10:46:25.140Z,4.20
2018-09-29T10:48:54.409Z,5.10
2018-09-29T10:51:23.679Z,4.73
2018-09-29T10:53:52.933Z,4.70
2018-09-29T10:56:22.186Z,5.63
2018-09-29T10:58:51.419Z,5.00
2018-09-29T11:01:20.656Z,3.00
2018-09-29T11:03:49.892Z,4.97
2018-09-29T11:06:19.148Z,5.37
2018-09-29T11:08:48.441Z,5.30
2018-09-29T11:11:17.691Z,3.77
2018-09-29T11:13:46.956Z,7.40
2018-09-29T11:16:16.184Z,6.50
2018-09-29T11:18:45.410Z,4.50
2018-09-29T11:21:14.719Z,5.90
2018-09-29T11:23:44.049Z,5.37
2018-09-29T11:26:13.292Z,6.77
2018-09-29T11:28:43.294Z,4.80
2018-09-29T11:31:12.524Z,7.53
2018-09-29T11:33:41.763Z,5.53
2018-09-29T11:36:11.643Z,4.47
2018-09-29T11:38:40.884Z,5.07
2018-09-29T11:41:10.127Z,5.13
2018-09-29T11:43:39.344Z,7.07
2018-09-29T11:46:08.629Z,4.23
2018-09-29T11:48:37.886Z,3.83
2018-09-29T11:51:07.180Z,5.83
2018-09-29T11:53:36.484Z,4.80
2018-09-29T11:56:05.766Z,5.67
2018-09-29T11:58:35.052Z,4.17
2018-09-29T12:01:04.470Z,4.43
2018-09-29T12:03:33.743Z,2.60
2018-09-29T12:06:03.191Z,2.87
2018-09-29T12:08:32.410Z,4.20
2018-09-29T12:11:01.649Z,3.93
2018-09-29T12:13:30.891Z,4.70
2018-09-29T12:16:00.110Z,6.47
2018-09-29T12:18:29.408Z,2.47
2018-09-29T12:20:58.652Z,3.87
2018-09-29T12:23:27.884Z,3.93
2018-09-29T12:25:57.145Z,3.43
2018-09-29T12:28:26.380Z,7.63
2018-09-29T12:30:55.613Z,2.73
2018-09-29T12:33:24.902Z,4.73
2018-09-29T12:35:54.846Z,4.53
2018-09-29T12:38:24.056Z,5.60
2018-09-29T12:40:53.292Z,2.67
2018-09-29T12:43:22.557Z,5.27
2018-09-29T12:45:51.804Z,4.77
2018-09-29T12:48:21.093Z,5.37
2018-09-29T12:50:50.345Z,5.57
2018-09-29T12:53:20.343Z,5.47
2018-09-29T12:55:49.596Z,3.23
2018-09-29T12:58:18.956Z,3.70
2018-09-29T13:00:48.209Z,5.13
2018-09-29T13:03:17.442Z,3.80
2018-09-29T13:05:46.689Z,4.77
2018-09-29T13:08:15.964Z,5.03
2018-09-29T13:10:45.292Z,6.63
2018-09-29T13:13:14.543Z,6.63
2018-09-29T13:15:43.796Z,6.50
2018-09-29T13:18:13.073Z,5.13
2018-09-29T13:20:42.560Z,3.73
2018-09-29T13:23:11.770Z,3.70
2018-09-29T13:25:41.045Z,4.90
2018-09-29T13:28:10.360Z,5.57
2018-09-29T13:30:39.639Z,5.37
2018-09-29T13:33:09.522Z,2.07
2018-09-29T13:35:39.037Z,5.37
2018-09-29T13:38:08.972Z,4.33
2018-09-29T13:40:38.366Z,3.23
2018-09-29T13:43:07.636Z,3.70
2018-09-29T13:45:36.992Z,5.83
2018-09-29T13:48:06.511Z,4.77
2018-09-29T13:50:35.768Z,4.80
2018-09-29T13:53:05.315Z,6.97
2018-09-29T13:55:35.596Z,4.43
2018-09-29T13:58:04.833Z,3.97
2018-09-29T14:00:34.217Z,5.03
2018-09-29T14:03:04.122Z,5.27
2018-09-29T14:05:33.368Z,6.53
2018-09-29T14:08:02.679Z,6.73
2018-09-29T14:10:31.956Z,6.67
2018-09-29T14:13:01.272Z,3.97
2018-09-29T14:15:30.544Z,6.13
2018-09-29T14:17:59.766Z,5.93
2018-09-29T14:20:29.660Z,5.03
2018-09-29T14:22:58.900Z,7.20
2018-09-29T14:25:28.211Z,4.17
2018-09-29T14:27:57.627Z,3.67
2018-09-29T14:30:26.966Z,3.10
2018-09-29T14:32:56.215Z,3.17
2018-09-29T14:35:25.465Z,4.13
2018-09-29T14:37:54.714Z,5.17
2018-09-29T14:40:23.973Z,3.93
2018-09-29T14:42:53.211Z,3.57
2018-09-29T14:45:23.276Z,4.70
2018-09-29T14:47:52.497Z,3.60
2018-09-29T14:50:21.774Z,5.77
2018-09-29T14:52:51.020Z,5.23
2018-09-29T14:55:20.232Z,4.73
2018-09-29T14:57:49.565Z,5.97
2018-09-29T15:00:18.864Z,5.20
2018-09-29T15:02:48.087Z,6.53
2018-09-29T15:05:17.412Z,5.97
2018-09-29T15:07:46.743Z,4.87
2018-09-29T15:10:16.692Z,7.03
2018-09-29T15:12:45.939Z,5.47
2018-09-29T15:15:15.210Z,7.27
2018-09-29T15:17:44.740Z,4.30
2018-09-29T15:20:14.027Z,4.53
2018-09-29T15:22:43.227Z,4.70
2018-09-29T15:25:12.743Z,3.23
2018-09-29T15:27:42.059Z,5.13
2018-09-29T15:30:11.292Z,3.07
2018-09-29T15:32:41.505Z,4.80
2018-09-29T15:35:10.724Z,4.87
2018-09-29T15:37:40.821Z,6.23
2018-09-29T15:40:10.058Z,4.27
2018-09-29T15:42:39.356Z,5.03
2018-09-29T15:45:09.335Z,6.27
2018-09-29T15:47:38.636Z,4.80
2018-09-29T15:50:08.442Z,4.13
2018-09-29T15:52:37.664Z,4.27
2018-09-29T15:55:07.038Z,5.27
2018-09-29T15:57:36.314Z,4.50
2018-09-29T16:00:05.691Z,5.60
2018-09-29T16:02:35.652Z,5.17
2018-09-29T16:05:05.252Z,4.43
2018-09-29T16:07:34.603Z,3.97
2018-09-29T16:10:04.137Z,5.70
2018-09-29T16:12:33.426Z,7.37
2018-09-29T16:15:02.847Z,3.83
2018-09-29T16:17:32.065Z,6.27
2018-09-29T16:20:01.435Z,6.23
2018-09-29T16:22:30.736Z,4.13
2018-09-29T16:25:00.034Z,6.03
2018-09-29T16:27:29.305Z,6.70
2018-09-29T16:29:58.581Z,4.60
2018-09-29T16:32:27.890Z,5.57
2018-09-29T16:34:57.284Z,6.93
2018-09-29T16:37:26.541Z,6.77
2018-09-29T16:39:55.785Z,9.93
2018-09-29T16:42:25.130Z,6.70
2018-09-29T16:44:54.420Z,6.60
2018-09-29T16:47:23.925Z,7.07
2018-09-29T16:49:53.183Z,6.57
2018-09-29T16:52:22.428Z,8.80
2018-09-29T16:54:51.658Z,7.27
2018-09-29T16:57:21.030Z,6.73
2018-09-29T16:59:51.336Z,7.13
2018-09-29T17:02:20.555Z,7.67
2018-09-29T17:04:50.168Z,5.77
2018-09-29T17:07:19.300Z,9.67
2018-09-29T17:09:48.629Z,7.10
2018-09-29T17:12:18.036Z,6.40
2018-09-29T17:14:47.920Z,10.70
2018-09-29T17:17:17.803Z,6.30
2018-09-29T17:19:47.243Z,4.43
2018-09-29T17:22:16.642Z,6.73
2018-09-29T17:24:45.923Z,7.93
2018-09-29T17:27:15.176Z,7.33
2018-09-29T17:29:44.428Z,4.77
2018-09-29T17:32:13.740Z,8.13
2018-09-29T17:34:42.972Z,6.30
2018-09-29T17:37:12.327Z,7.00
2018-09-29T17:39:41.612Z,6.93
2018-09-29T17:42:10.864Z,7.63
2018-09-29T17:44:40.103Z,10.03
2018-09-29T17:47:09.411Z,7.23
2018-09-29T17:49:39.385Z,9.00
2018-09-29T17:52:08.612Z,9.27
2018-09-29T17:54:37.858Z,5.47
2018-09-29T17:57:08.427Z,8.90
2018-09-29T17:59:37.910Z,6.07
2018-09-29T18:02:07.384Z,6.50
2018-09-29T18:04:36.658Z,9.43
2018-09-29T18:07:06.204Z,5.03
2018-09-29T18:09:36.193Z,6.23
2018-09-29T18:12:05.451Z,9.90
2018-09-29T18:14:34.739Z,9.97
2018-09-29T18:17:04.083Z,9.13
2018-09-29T18:19:33.407Z,7.97
2018-09-29T18:22:02.801Z,10.77
2018-09-29T18:24:32.007Z,13.03
2018-09-29T18:27:01.309Z,6.40
2018-09-29T18:29:30.794Z,14.77
2018-09-29T18:32:00.076Z,11.40
2018-09-29T18:34:29.342Z,9.70
2018-09-29T18:36:58.597Z,10.43
2018-09-29T18:39:27.840Z,12.80
2018-09-29T18:41:57.079Z,7.57
2018-09-29T18:44:26.324Z,7.33
2018-09-29T18:46:55.624Z,10.40
2018-09-29T18:49:25.001Z,7.30
2018-09-29T18:51:54.228Z,9.90
2018-09-29T18:54:23.485Z,9.83
2018-09-29T18:56:52.860Z,10.17
2018-09-29T18:59:22.131Z,9.70
2018-09-29T19:01:51.420Z,9.77
2018-09-29T19:04:20.781Z,6.80
2018-09-29T19:06:50.022Z,9.10
2018-09-29T19:09:19.845Z,9.57
2018-09-29T19:11:49.253Z,12.87
2018-09-29T19:14:18.439Z,12.13
2018-09-29T19:16:47.733Z,10.87
2018-09-29T19:19:16.996Z,16.40
2018-09-29T19:21:46.346Z,14.70
2018-09-29T19:24:15.619Z,10.77
2018-09-29T19:26:44.954Z,12.20
2018-09-29T19:29:14.256Z,11.40
2018-09-29T19:31:43.566Z,7.83
2018-09-29T19:34:12.845Z,11.73
2018-09-29T19:36:42.128Z,11.50
2018-09-29T19:39:11.410Z,12.93
2018-09-29T19:41:40.650Z,9.67
2018-09-29T19:44:09.884Z,8.27
2018-09-29T19:46:39.661Z,12.93
2018-09-29T19:49:08.918Z,11.00
2018-09-29T19:51:38.265Z,10.50
2018-09-29T19:54:07.610Z,11.20
2018-09-29T19:56:36.850Z,9.60
2018-09-29T19:59:06.140Z,13.13
2018-09-29T20:01:35.582Z,12.47
2018-09-29T20:04:05.057Z,10.67
2018-09-29T20:06:34.342Z,10.03
2018-09-29T20:09:04.637Z,12.47
2018-09-29T20:11:33.868Z,13.27
2018-09-29T20:14:03.124Z,12.67
2018-09-29T20:16:32.507Z,14.07
2018-09-29T20:19:02.000Z,10.87
2018-09-29T20:21:31.329Z,12.20
2018-09-29T20:24:00.559Z,14.07
2018-09-29T20:26:29.797Z,10.50
2018-09-29T20:28:59.081Z,10.13
2018-09-29T20:31:28.394Z,11.70
2018-09-29T20:33:57.647Z,12.63
2018-09-29T20:36:26.963Z,13.70
2018-09-29T20:38:56.280Z,13.67
2018-09-29T20:41:25.533Z,10.60
2018-09-29T20:43:54.781Z,12.37
2018-09-29T20:46:24.024Z,12.07
2018-09-29T20:48:53.308Z,10.90
2018-09-29T20:56:23.169Z,13.43
2018-09-29T20:58:52.408Z,9.57
2018-09-29T21:01:22.342Z,11.07
2018-09-29T21:03:51.555Z,11.37
2018-09-29T21:06:20.837Z,11.70
2018-09-29T21:08:50.174Z,15.57
2018-09-29T21:11:19.677Z,10.17
2018-09-29T21:13:49.270Z,12.07
2018-09-29T21:16:18.470Z,11.27
2018-09-29T21:18:47.764Z,9.43
2018-09-29T21:21:16.997Z,11.17
2018-09-29T21:23:46.261Z,14.27
2018-09-29T21:26:15.495Z,8.77
2018-09-29T21:28:44.721Z,13.10
2018-09-29T21:31:13.981Z,9.60
2018-09-29T21:33:43.223Z,11.57
2018-09-29T21:36:12.452Z,14.57
2018-09-29T21:38:41.883Z,10.67
2018-09-29T21:41:11.217Z,12.83
2018-09-29T21:43:40.441Z,11.70
2018-09-29T21:46:09.752Z,13.33
2018-09-29T21:48:38.993Z,11.87
2018-09-29T21:51:08.264Z,13.10
2018-09-29T21:53:37.506Z,9.73
2018-09-29T21:56:06.873Z,8.90
2018-09-29T21:58:36.108Z,12.20
2018-09-29T22:01:10.734Z,7.83
2018-09-29T22:03:40.013Z,8.80
2018-09-29T22:06:09.372Z,7.77
2018-09-29T22:08:38.644Z,12.20
2018-09-29T22:11:08.035Z,8.73
2018-09-29T22:13:37.339Z,13.90
2018-09-29T22:16:06.719Z,11.00
2018-09-29T22:18:35.971Z,8.37
2018-09-29T22:21:05.331Z,8.83
2018-09-29T22:23:34.493Z,8.17
2018-09-29T22:26:03.877Z,9.80
2018-09-29T22:28:33.150Z,10.87
2018-09-29T22:31:02.429Z,10.80
2018-09-29T22:33:31.675Z,9.40
2018-09-29T22:36:01.072Z,10.60
2018-09-29T22:38:30.296Z,11.67
2018-09-29T22:40:59.554Z,9.07
2018-09-29T22:43:28.801Z,10.63
2018-09-29T22:45:58.061Z,9.67
2018-09-29T22:48:27.379Z,10.83
2018-09-29T22:50:56.742Z,9.40
2018-09-29T22:53:25.999Z,8.90
2018-09-29T22:55:55.372Z,13.57
2018-09-29T22:58:24.600Z,9.10
2018-09-29T23:00:54.023Z,11.47
2018-09-29T23:03:23.256Z,10.40
2018-09-29T23:05:52.472Z,11.13
2018-09-29T23:08:22.474Z,9.43
2018-09-29T23:10:51.712Z,10.70
2018-09-29T23:13:20.999Z,10.70
2018-09-29T23:15:50.292Z,14.17
2018-09-29T23:18:19.531Z,10.07
2018-09-29T23:20:48.752Z,8.37
2018-09-29T23:23:17.974Z,9.20
2018-09-29T23:25:47.278Z,11.53
2018-09-29T23:28:16.504Z,9.13
2018-09-29T23:30:46.352Z,12.07
2018-09-29T23:33:15.580Z,9.53
2018-09-29T23:35:45.689Z,8.67
2018-09-29T23:38:14.936Z,8.70
2018-09-29T23:40:44.169Z,10.43
2018-09-29T23:43:13.904Z,9.97
2018-09-29T23:45:43.134Z,11.13
2018-09-29T23:48:12.401Z,9.23
2018-09-29T23:50:41.987Z,9.37
2018-09-29T23:53:11.216Z,11.10
2018-09-29T23:55:40.445Z,10.10
2018-09-29T23:58:10.057Z,11.40
